Koyo — JD2279 — position and weather

sailwx.info

Track history (hours):
 
Tides and Currents Weather Stations Pressure Air Temp Water Temp Dewpoint Dewpoint Depression Visibility Wind Speed Wind Dir Waves Ship Positions

Koyo

Last reported at 2014-Aug-27 06:33 UTC. Time now 2014-Aug-28 07:28 UTC.
Position N 34°35' E 134°51'.

Length 80 m; draft 3.6 m.

Type: Cargo ship. MMSI: 431301812.

Date/timePositionNaut miles runAvg speedWind from/ knotsBaromVisibWave heightAir tempDewpointWater temp
2014-Aug-27 06:33N 34°35' E 134°51'10 9.9
2014-Aug-27 05:33N 34°37' E 135°03'1212.1
2014-Aug-27 04:33N 34°37' E 135°17'7 6.5
2014-Aug-27 03:33N 34°38' E 135°25'0 0.0
2014-Aug-27 02:33N 34°38' E 135°25'4 4.2
2014-Aug-27 01:33N 34°39' E 135°20'5 4.7
2014-Aug-27 00:32N 34°40' E 135°14'0 0.0
2014-Aug-26 23:32N 34°40' E 135°14'1 1.1
2014-Aug-26 22:32N 34°39' E 135°15'0 0.4
2014-Aug-26 21:33N 34°38' E 135°15'1010.4
2014-Aug-26 20:33N 34°36' E 135°03'1110.8
2014-Aug-26 19:32N 34°33' E 134°50'133 5.2
2014-Aug-25 18:03N 33°50' E 132°17'2113.4
2014-Aug-25 16:30N 34°01' E 132°38'11612.9
2014-Aug-25 07:32N 34°35' E 134°52'1111.6
2014-Aug-25 06:33N 34°36' E 135°06'8 7.6
2014-Aug-25 05:31N 34°40' E 135°14'0 0.0
2014-Aug-25 04:19N 34°40' E 135°14'0 0.0
2014-Aug-25 03:25N 34°40' E 135°14'0 0.0
2014-Aug-25 02:25N 34°40' E 135°14'0 0.5
2014-Aug-25 01:33N 34°40' E 135°15'2 1.8
2014-Aug-25 00:14N 34°41' E 135°13'0 0.0
2014-Aug-24 23:14N 34°41' E 135°13'0 0.0
2014-Aug-24 22:32N 34°41' E 135°13'0 0.0
2014-Aug-24 21:32N 34°41' E 135°13'0 0.0
2014-Aug-24 20:32N 34°41' E 135°13'0 0.0
2014-Aug-24 19:32N 34°41' E 135°13'0 0.0
2014-Aug-24 18:32N 34°41' E 135°13'0 0.0
2014-Aug-24 17:32N 34°41' E 135°13'0 0.0
2014-Aug-24 16:32N 34°41' E 135°13'0 0.0
2014-Aug-24 15:32N 34°41' E 135°13'0 0.0
2014-Aug-24 14:32N 34°41' E 135°13'0 0.0
2014-Aug-24 13:32N 34°41' E 135°13'0 0.0
2014-Aug-24 12:26N 34°41' E 135°13'0 0.0
2014-Aug-24 11:32N 34°41' E 135°13'0 0.0
2014-Aug-24 10:32N 34°41' E 135°13'0 0.0
2014-Aug-24 09:32N 34°41' E 135°13'0 0.0
2014-Aug-24 08:32N 34°41' E 135°13'0 0.0
2014-Aug-24 07:26N 34°41' E 135°13'0 0.0
2014-Aug-24 06:32N 34°41' E 135°13'0 0.0
2014-Aug-24 05:32N 34°41' E 135°13'0 0.0
2014-Aug-24 04:26N 34°41' E 135°13'0 0.0
2014-Aug-24 03:32N 34°41' E 135°13'0 0.0
2014-Aug-24 02:32N 34°41' E 135°13'0 0.0
2014-Aug-24 01:32N 34°41' E 135°13'0 0.0
2014-Aug-24 00:32N 34°41' E 135°13'0 0.0
2014-Aug-23 23:20N 34°41' E 135°13'0 0.0
2014-Aug-23 22:32N 34°41' E 135°13'0 0.0
2014-Aug-23 21:26N 34°41' E 135°13'0 0.0
2014-Aug-23 20:32N 34°41' E 135°13'0 0.0
2014-Aug-23 19:32N 34°41' E 135°13'22 0.7
2014-Aug-22 12:10N 34°33' E 134°47'812.7
2014-Aug-22 11:32N 34°37' E 134°56'1111.0
2014-Aug-22 10:33N 34°37' E 135°09'5 4.9
2014-Aug-22 09:31N 34°40' E 135°14'0 0.0
2014-Aug-22 08:31N 34°40' E 135°14'0 0.0
2014-Aug-22 07:31N 34°40' E 135°14'1 0.5
2014-Aug-22 06:33N 34°39' E 135°15'1 0.6
2014-Aug-22 05:28N 34°39' E 135°15'0 0.0
2014-Aug-22 04:16N 34°39' E 135°15'0 0.0
2014-Aug-22 03:22N 34°39' E 135°15'0 0.0
2014-Aug-22 02:28N 34°39' E 135°15'0 0.0
2014-Aug-22 01:22N 34°39' E 135°15'5 5.7
2014-Aug-22 00:33N 34°36' E 135°10'9 8.5
2014-Aug-21 23:33N 34°37' E 135°00'1010.2
2014-Aug-21 22:32N 34°33' E 134°49'108 9.8
2014-Aug-21 11:33N 33°60' E 132°45'1311.5
2014-Aug-21 10:23N 33°52' E 132°31'1111.8
2014-Aug-21 09:28N 33°50' E 132°19'19 1.6
2014-Aug-20 21:24N 34°01' E 132°37'11112.6
2014-Aug-20 12:33N 34°33' E 134°46'1313.3
2014-Aug-20 11:33N 34°37' E 135°02'1111.1
2014-Aug-20 10:33N 34°39' E 135°15'1 0.6
2014-Aug-20 09:32N 34°40' E 135°14'0 0.0
2014-Aug-20 08:32N 34°40' E 135°14'0 0.0
2014-Aug-20 07:33N 34°40' E 135°14'2 2.2
2014-Aug-20 06:33N 34°37' E 135°14'1211.7
2014-Aug-20 05:30N 34°37' E 134°59'1213.1
2014-Aug-20 04:33N 34°32' E 134°45'10412.9
2014-Aug-19 20:31N 34°00' E 132°46'1413.4
2014-Aug-19 19:28N 33°52' E 132°32'1213.6
2014-Aug-19 18:34N 33°50' E 132°17'130 3.6
2014-Aug-18 06:28N 34°33' E 134°45'1414.9
2014-Aug-18 05:32N 34°37' E 135°01'1212.0
2014-Aug-18 04:33N 34°39' E 135°15'1 1.0
2014-Aug-18 03:25N 34°40' E 135°14'0 0.0
2014-Aug-18 02:31N 34°40' E 135°14'0 0.0
2014-Aug-18 01:31N 34°40' E 135°14'0 0.0
2014-Aug-18 00:19N 34°40' E 135°14'19 3.3
2014-Aug-17 18:33N 34°23' E 135°04'1111.2
2014-Aug-17 17:33N 34°13' E 134°58'  
Track history (hours):
 
Tides and Currents Weather Stations Pressure Air Temp Water Temp Dewpoint Dewpoint Depression Visibility Wind Speed Wind Dir Waves Ship Positions

Koyo

Last reported at 2014-Aug-27 06:33 UTC. Time now 2014-Aug-28 07:28 UTC.
Position N 34°35' E 134°51'.

Length 80 m; draft 3.6 m.

Type: Cargo ship. MMSI: 431301812.

Date/timePositionNaut miles runAvg speedWind from/ knotsBaromVisibWave heightAir tempDewpointWater temp
2014-Aug-27 06:33N 34°35' E 134°51'10 9.9
2014-Aug-27 05:33N 34°37' E 135°03'1212.1
2014-Aug-27 04:33N 34°37' E 135°17'7 6.5
2014-Aug-27 03:33N 34°38' E 135°25'0 0.0
2014-Aug-27 02:33N 34°38' E 135°25'4 4.2
2014-Aug-27 01:33N 34°39' E 135°20'5 4.7
2014-Aug-27 00:32N 34°40' E 135°14'0 0.0
2014-Aug-26 23:32N 34°40' E 135°14'1 1.1
2014-Aug-26 22:32N 34°39' E 135°15'0 0.4
2014-Aug-26 21:33N 34°38' E 135°15'1010.4
2014-Aug-26 20:33N 34°36' E 135°03'1110.8
2014-Aug-26 19:32N 34°33' E 134°50'133 5.2
2014-Aug-25 18:03N 33°50' E 132°17'2113.4
2014-Aug-25 16:30N 34°01' E 132°38'11612.9
2014-Aug-25 07:32N 34°35' E 134°52'1111.6
2014-Aug-25 06:33N 34°36' E 135°06'8 7.6
2014-Aug-25 05:31N 34°40' E 135°14'0 0.0
2014-Aug-25 04:19N 34°40' E 135°14'0 0.0
2014-Aug-25 03:25N 34°40' E 135°14'0 0.0
2014-Aug-25 02:25N 34°40' E 135°14'0 0.5
2014-Aug-25 01:33N 34°40' E 135°15'2 1.8
2014-Aug-25 00:14N 34°41' E 135°13'0 0.0
2014-Aug-24 23:14N 34°41' E 135°13'0 0.0
2014-Aug-24 22:32N 34°41' E 135°13'0 0.0
2014-Aug-24 21:32N 34°41' E 135°13'0 0.0
2014-Aug-24 20:32N 34°41' E 135°13'0 0.0
2014-Aug-24 19:32N 34°41' E 135°13'0 0.0
2014-Aug-24 18:32N 34°41' E 135°13'0 0.0
2014-Aug-24 17:32N 34°41' E 135°13'0 0.0
2014-Aug-24 16:32N 34°41' E 135°13'0 0.0
2014-Aug-24 15:32N 34°41' E 135°13'0 0.0
2014-Aug-24 14:32N 34°41' E 135°13'0 0.0
2014-Aug-24 13:32N 34°41' E 135°13'0 0.0
2014-Aug-24 12:26N 34°41' E 135°13'0 0.0
2014-Aug-24 11:32N 34°41' E 135°13'0 0.0
2014-Aug-24 10:32N 34°41' E 135°13'0 0.0
2014-Aug-24 09:32N 34°41' E 135°13'0 0.0
2014-Aug-24 08:32N 34°41' E 135°13'0 0.0
2014-Aug-24 07:26N 34°41' E 135°13'0 0.0
2014-Aug-24 06:32N 34°41' E 135°13'0 0.0
2014-Aug-24 05:32N 34°41' E 135°13'0 0.0
2014-Aug-24 04:26N 34°41' E 135°13'0 0.0
2014-Aug-24 03:32N 34°41' E 135°13'0 0.0
2014-Aug-24 02:32N 34°41' E 135°13'0 0.0
2014-Aug-24 01:32N 34°41' E 135°13'0 0.0
2014-Aug-24 00:32N 34°41' E 135°13'0 0.0
2014-Aug-23 23:20N 34°41' E 135°13'0 0.0
2014-Aug-23 22:32N 34°41' E 135°13'0 0.0
2014-Aug-23 21:26N 34°41' E 135°13'0 0.0
2014-Aug-23 20:32N 34°41' E 135°13'0 0.0
2014-Aug-23 19:32N 34°41' E 135°13'22 0.7
2014-Aug-22 12:10N 34°33' E 134°47'812.7
2014-Aug-22 11:32N 34°37' E 134°56'1111.0
2014-Aug-22 10:33N 34°37' E 135°09'5 4.9
2014-Aug-22 09:31N 34°40' E 135°14'0 0.0
2014-Aug-22 08:31N 34°40' E 135°14'0 0.0
2014-Aug-22 07:31N 34°40' E 135°14'1 0.5
2014-Aug-22 06:33N 34°39' E 135°15'1 0.6
2014-Aug-22 05:28N 34°39' E 135°15'0 0.0
2014-Aug-22 04:16N 34°39' E 135°15'0 0.0
2014-Aug-22 03:22N 34°39' E 135°15'0 0.0
2014-Aug-22 02:28N 34°39' E 135°15'0 0.0
2014-Aug-22 01:22N 34°39' E 135°15'5 5.7
2014-Aug-22 00:33N 34°36' E 135°10'9 8.5
2014-Aug-21 23:33N 34°37' E 135°00'1010.2
2014-Aug-21 22:32N 34°33' E 134°49'108 9.8
2014-Aug-21 11:33N 33°60' E 132°45'1311.5
2014-Aug-21 10:23N 33°52' E 132°31'1111.8
2014-Aug-21 09:28N 33°50' E 132°19'19 1.6
2014-Aug-20 21:24N 34°01' E 132°37'11112.6
2014-Aug-20 12:33N 34°33' E 134°46'1313.3
2014-Aug-20 11:33N 34°37' E 135°02'1111.1
2014-Aug-20 10:33N 34°39' E 135°15'1 0.6
2014-Aug-20 09:32N 34°40' E 135°14'0 0.0
2014-Aug-20 08:32N 34°40' E 135°14'0 0.0
2014-Aug-20 07:33N 34°40' E 135°14'2 2.2
2014-Aug-20 06:33N 34°37' E 135°14'1211.7
2014-Aug-20 05:30N 34°37' E 134°59'1213.1
2014-Aug-20 04:33N 34°32' E 134°45'10412.9
2014-Aug-19 20:31N 34°00' E 132°46'1413.4
2014-Aug-19 19:28N 33°52' E 132°32'1213.6
2014-Aug-19 18:34N 33°50' E 132°17'130 3.6
2014-Aug-18 06:28N 34°33' E 134°45'1414.9
2014-Aug-18 05:32N 34°37' E 135°01'1212.0
2014-Aug-18 04:33N 34°39' E 135°15'1 1.0
2014-Aug-18 03:25N 34°40' E 135°14'0 0.0
2014-Aug-18 02:31N 34°40' E 135°14'0 0.0
2014-Aug-18 01:31N 34°40' E 135°14'0 0.0
2014-Aug-18 00:19N 34°40' E 135°14'19 3.3
2014-Aug-17 18:33N 34°23' E 135°04'1111.2
2014-Aug-17 17:33N 34°13' E 134°58'  

Dump ship's entire track history